Station Historical Data
Daily Summary for May 22, 2011 Units:  Both    English   Metric
« Previous Day
Next Day »
Daily Weekly Monthly Yearly Custom
  High: Low: Average:
Temperature: 82.3 °F /  27.9 °C 65.5 °F /  18.6 °C 73.6 °F /  23.1 °C
Dew Point: 72.2 °F /  22.3 °C 62.6 °F /  17 °C 66.4 °F /  19.1 °C
Humidity: 92% 56% 79%
Wind Speed: 14.0mph /  22.5km/h - 4.2mph /  6.8km/h
Wind Gust: 17.0mph /  27.4km/h - -
Wind- - South
Pressure: 30.02 in /  1016.5 hPa 29.84 in /  1010.4 hPa -
Precipitation: 0.00 in /  0 mm    
Historical Graphs
 
 
Tabular Data for May 22, 2011
Time Temperature Dew Point Pressure Wind Wind Speed Wind Gust Humidity Rainfall Rate (Hourly) Conditions
00:00 69.3 °F /  20.7 °C 63.6 °F /  17.6 °C 29.92in /  1013.1hPa Calm     82% 0.00in /  0mm
00:02 69.0 °F /  20.6 °C 63.6 °F /  17.6 °C 29.92in /  1013.1hPa Calm     83% 0.00in /  0mm
00:07 68.9 °F /  20.5 °C 63.5 °F /  17.5 °C 29.92in /  1013.1hPa Calm     83% 0.00in /  0mm
00:08 68.8 °F /  20.4 °C 63.4 °F /  17.4 °C 29.92in /  1013.1hPa Calm     83% 0.00in /  0mm
00:12 68.9 °F /  20.5 °C 63.5 °F /  17.5 °C 29.92in /  1013.1hPa Calm     83% 0.00in /  0mm
00:17 68.9 °F /  20.5 °C 63.5 °F /  17.5 °C 29.92in /  1013.1hPa Calm   1.0mph /  1.6km/h 83% 0.00in /  0mm
00:19 68.7 °F /  20.4 °C 63.3 °F /  17.4 °C 29.92in /  1013.1hPa Calm     83% 0.00in /  0mm
00:22 68.5 °F /  20.3 °C 63.5 °F /  17.5 °C 29.92in /  1013.1hPa Calm     84% 0.00in /  0mm
00:27 67.9 °F /  19.9 °C 63.2 °F /  17.3 °C 29.92in /  1013.1hPa Calm     85% 0.00in /  0mm
00:28 67.9 °F /  19.9 °C 63.2 °F /  17.3 °C 29.92in /  1013.1hPa Calm     85% 0.00in /  0mm
00:33 67.3 °F /  19.6 °C 63.3 °F /  17.4 °C 29.92in /  1013.1hPa Calm     87% 0.00in /  0mm
00:34 67.1 °F /  19.5 °C 63.1 °F /  17.3 °C 29.92in /  1013.1hPa Calm     87% 0.00in /  0mm
00:36 66.9 °F /  19.4 °C 62.9 °F /  17.2 °C 29.92in /  1013.1hPa Calm     87% 0.00in /  0mm
00:39 66.7 °F /  19.3 °C 63.0 °F /  17.2 °C 29.92in /  1013.1hPa Calm     88% 0.00in /  0mm
00:44 66.2 °F /  19 °C 62.9 °F /  17.2 °C 29.93in /  1013.4hPa Calm     89% 0.00in /  0mm
00:49 66.0 °F /  18.9 °C 63.0 °F /  17.2 °C 29.93in /  1013.4hPa Calm     90% 0.00in /  0mm
00:52 65.9 °F /  18.8 °C 62.9 °F /  17.2 °C 29.93in /  1013.4hPa Calm     90% 0.00in /  0mm
00:54 65.8 °F /  18.8 °C 62.8 °F /  17.1 °C 29.93in /  1013.4hPa Calm     90% 0.00in /  0mm
00:55 65.8 °F /  18.8 °C 62.8 °F /  17.1 °C 29.93in /  1013.4hPa Calm     90% 0.00in /  0mm
00:57 65.7 °F /  18.7 °C 63.0 °F /  17.2 °C 29.93in /  1013.4hPa Calm     91% 0.00in /  0mm
00:58 65.6 °F /  18.7 °C 62.9 °F /  17.2 °C 29.93in /  1013.4hPa Calm     91% 0.00in /  0mm
01:03 65.5 °F /  18.6 °C 63.1 °F /  17.3 °C 29.93in /  1013.4hPa Calm     92% 0.00in /  0mm
01:09 65.5 °F /  18.6 °C 63.1 °F /  17.3 °C 29.93in /  1013.4hPa Calm     92% 0.00in /  0mm
01:13 65.8 °F /  18.8 °C 63.1 °F /  17.3 °C 29.93in /  1013.4hPa Calm     91% 0.00in /  0mm
01:14 65.8 °F /  18.8 °C 63.1 °F /  17.3 °C 29.93in /  1013.4hPa Calm     91% 0.00in /  0mm
01:19 65.7 °F /  18.7 °C 63.0 °F /  17.2 °C 29.93in /  1013.4hPa Calm     91% 0.00in /  0mm
01:24 65.6 °F /  18.7 °C 63.2 °F /  17.3 °C 29.93in /  1013.4hPa Calm   1.0mph /  1.6km/h 92% 0.00in /  0mm
01:25 65.7 °F /  18.7 °C 63.3 °F /  17.4 °C 29.93in /  1013.4hPa Calm   1.0mph /  1.6km/h 92% 0.00in /  0mm
01:31 65.9 °F /  18.8 °C 63.2 °F /  17.3 °C 29.92in /  1013.1hPa Calm   1.0mph /  1.6km/h 91% 0.00in /  0mm
01:32 65.9 °F /  18.8 °C 63.2 °F /  17.3 °C 29.92in /  1013.1hPa Calm   1.0mph /  1.6km/h 91% 0.00in /  0mm
01:34 66.2 °F /  19 °C 63.5 °F /  17.5 °C 29.92in /  1013.1hPa SE 1.0mph /  1.6km/h 1.0mph /  1.6km/h 91% 0.00in /  0mm
01:36 66.8 °F /  19.3 °C 63.8 °F /  17.7 °C 29.92in /  1013.1hPa SE 1.0mph /  1.6km/h 1.0mph /  1.6km/h 90% 0.00in /  0mm
01:38 67.1 °F /  19.5 °C 63.8 °F /  17.7 °C 29.92in /  1013.1hPa SE 1.0mph /  1.6km/h 1.0mph /  1.6km/h 89% 0.00in /  0mm
01:43 67.5 °F /  19.7 °C 63.5 °F /  17.5 °C 29.92in /  1013.1hPa ESE 1.0mph /  1.6km/h 1.0mph /  1.6km/h 87% 0.00in /  0mm
01:49 67.8 °F /  19.9 °C 63.8 °F /  17.7 °C 29.92in /  1013.1hPa East 2.0mph /  3.2km/h 3.0mph /  4.8km/h 87% 0.00in /  0mm
01:54 67.8 °F /  19.9 °C 63.5 °F /  17.5 °C 29.92in /  1013.1hPa East 2.0mph /  3.2km/h 3.0mph /  4.8km/h 86% 0.00in /  0mm
01:55 67.8 °F /  19.9 °C 63.5 °F /  17.5 °C 29.92in /  1013.1hPa East 2.0mph /  3.2km/h 3.0mph /  4.8km/h 86% 0.00in /  0mm
01:59 67.7 °F /  19.8 °C 63.7 °F /  17.6 °C 29.92in /  1013.1hPa ESE 1.0mph /  1.6km/h 3.0mph /  4.8km/h 87% 0.00in /  0mm
02:04 67.1 °F /  19.5 °C 63.1 °F /  17.3 °C 29.92in /  1013.1hPa ESE 1.0mph /  1.6km/h 1.0mph /  1.6km/h 87% 0.00in /  0mm
02:09 66.9 °F /  19.4 °C 63.2 °F /  17.3 °C 29.92in /  1013.1hPa ESE 1.0mph /  1.6km/h 1.0mph /  1.6km/h 88% 0.00in /  0mm
02:14 66.7 °F /  19.3 °C 63.0 °F /  17.2 °C 29.92in /  1013.1hPa ESE 1.0mph /  1.6km/h 1.0mph /  1.6km/h 88% 0.00in /  0mm
02:19 66.5 °F /  19.2 °C 62.8 °F /  17.1 °C 29.92in /  1013.1hPa Calm     88% 0.00in /  0mm
02:24 66.0 °F /  18.9 °C 62.7 °F /  17.1 °C 29.92in /  1013.1hPa Calm     89% 0.00in /  0mm
02:29 65.8 °F /  18.8 °C 62.8 °F /  17.1 °C 29.92in /  1013.1hPa ESE 1.0mph /  1.6km/h 1.0mph /  1.6km/h 90% 0.00in /  0mm
02:30 65.8 °F /  18.8 °C 62.8 °F /  17.1 °C 29.92in /  1013.1hPa ESE 1.0mph /  1.6km/h 1.0mph /  1.6km/h 90% 0.00in /  0mm
02:35 65.9 °F /  18.8 °C 62.9 °F /  17.2 °C 29.92in /  1013.1hPa Calm   1.0mph /  1.6km/h 90% 0.00in /  0mm
02:37 65.9 °F /  18.8 °C 62.9 °F /  17.2 °C 29.92in /  1013.1hPa Calm   1.0mph /  1.6km/h 90% 0.00in /  0mm
02:40 66.1 °F /  18.9 °C 63.1 °F /  17.3 °C 29.92in /  1013.1hPa Calm     90% 0.00in /  0mm
02:45 66.0 °F /  18.9 °C 62.7 °F /  17.1 °C 29.92in /  1013.1hPa Calm     89% 0.00in /  0mm
02:50 65.7 °F /  18.7 °C 62.7 °F /  17.1 °C 29.92in /  1013.1hPa Calm     90% 0.00in /  0mm
02:51 65.6 °F /  18.7 °C 62.6 °F /  17 °C 29.92in /  1013.1hPa Calm     90% 0.00in /  0mm
02:53 65.7 °F /  18.7 °C 63.0 °F /  17.2 °C 29.92in /  1013.1hPa Calm     91% 0.00in /  0mm
02:56 65.7 °F /  18.7 °C 62.7 °F /  17.1 °C 29.92in /  1013.1hPa Calm     90% 0.00in /  0mm
03:00 65.8 °F /  18.8 °C 62.8 °F /  17.1 °C 29.92in /  1013.1hPa Calm     90% 0.00in /  0mm
03:01 65.9 °F /  18.8 °C 62.9 °F /  17.2 °C 29.92in /  1013.1hPa ESE 1.0mph /  1.6km/h 1.0mph /  1.6km/h 90% 0.00in /  0mm
03:06 66.1 °F /  18.9 °C 62.8 °F /  17.1 °C 29.92in /  1013.1hPa ESE 1.0mph /  1.6km/h 1.0mph /  1.6km/h 89% 0.00in /  0mm
03:07 66.1 °F /  18.9 °C 62.8 °F /  17.1 °C 29.92in /  1013.1hPa ESE 1.0mph /  1.6km/h 1.0mph /  1.6km/h 89% 0.00in /  0mm
03:12 66.1 °F /  18.9 °C 62.8 °F /  17.1 °C 29.92in /  1013.1hPa SE 1.0mph /  1.6km/h 1.0mph /  1.6km/h 89% 0.00in /  0mm
03:17 66.5 °F /  19.2 °C 63.2 °F /  17.3 °C 29.92in /  1013.1hPa ESE 4.0mph /  6.4km/h 4.0mph /  6.4km/h 89% 0.00in /  0mm
03:22 66.6 °F /  19.2 °C 62.9 °F /  17.2 °C 29.92in /  1013.1hPa ESE 3.0mph /  4.8km/h 4.0mph /  6.4km/h 88% 0.00in /  0mm
03:23 66.7 °F /  19.3 °C 63.0 °F /  17.2 °C 29.92in /  1013.1hPa ESE 4.0mph /  6.4km/h 4.0mph /  6.4km/h 88% 0.00in /  0mm
03:28 66.9 °F /  19.4 °C 63.2 °F /  17.3 °C 29.92in /  1013.1hPa ESE 2.0mph /  3.2km/h 4.0mph /  6.4km/h 88% 0.00in /  0mm
03:29 66.9 °F /  19.4 °C 63.2 °F /  17.3 °C 29.92in /  1013.1hPa ESE 1.0mph /  1.6km/h 3.0mph /  4.8km/h 88% 0.00in /  0mm
03:34 66.8 °F /  19.3 °C 63.1 °F /  17.3 °C 29.92in /  1013.1hPa Calm   1.0mph /  1.6km/h 88% 0.00in /  0mm
03:37 66.7 °F /  19.3 °C 63.0 °F /  17.2 °C 29.93in /  1013.4hPa ESE 1.0mph /  1.6km/h 1.0mph /  1.6km/h 88% 0.00in /  0mm
03:39 66.7 °F /  19.3 °C 63.0 °F /  17.2 °C 29.92in /  1013.1hPa ESE 1.0mph /  1.6km/h 2.0mph /  3.2km/h 88% 0.00in /  0mm
03:44 67.2 °F /  19.6 °C 63.5 °F /  17.5 °C 29.92in /  1013.1hPa East 4.0mph /  6.4km/h 4.0mph /  6.4km/h 88% 0.00in /  0mm
03:49 67.3 °F /  19.6 °C 63.3 °F /  17.4 °C 29.92in /  1013.1hPa ESE 4.0mph /  6.4km/h 5.0mph /  8km/h 87% 0.00in /  0mm
03:54 67.5 °F /  19.7 °C 63.5 °F /  17.5 °C 29.92in /  1013.1hPa ESE 3.0mph /  4.8km/h 4.0mph /  6.4km/h 87% 0.00in /  0mm
03:55 67.6 °F /  19.8 °C 63.6 °F /  17.6 °C 29.92in /  1013.1hPa ESE 4.0mph /  6.4km/h 5.0mph /  8km/h 87% 0.00in /  0mm
03:57 67.7 °F /  19.8 °C 63.7 °F /  17.6 °C 29.92in /  1013.1hPa East 3.0mph /  4.8km/h 5.0mph /  8km/h 87% 0.00in /  0mm
03:59 67.7 °F /  19.8 °C 63.7 °F /  17.6 °C 29.92in /  1013.1hPa ESE 5.0mph /  8km/h 5.0mph /  8km/h 87% 0.00in /  0mm
04:02 67.7 °F /  19.8 °C 63.7 °F /  17.6 °C 29.92in /  1013.1hPa ESE 4.0mph /  6.4km/h 5.0mph /  8km/h 87% 0.00in /  0mm
04:08 67.7 °F /  19.8 °C 63.7 °F /  17.6 °C 29.92in /  1013.1hPa ESE 2.0mph /  3.2km/h 4.0mph /  6.4km/h 87% 0.00in /  0mm
04:13 67.5 °F /  19.7 °C 63.5 °F /  17.5 °C 29.92in /  1013.1hPa East 3.0mph /  4.8km/h 4.0mph /  6.4km/h 87% 0.00in /  0mm
04:18 67.4 °F /  19.7 °C 63.7 °F /  17.6 °C 29.92in /  1013.1hPa East 4.0mph /  6.4km/h 4.0mph /  6.4km/h 88% 0.00in /  0mm
04:23 67.4 °F /  19.7 °C 63.7 °F /  17.6 °C 29.91in /  1012.8hPa ESE 4.0mph /  6.4km/h 5.0mph /  8km/h 88% 0.00in /  0mm
04:28 67.1 °F /  19.5 °C 63.8 °F /  17.7 °C 29.91in /  1012.8hPa ESE 4.0mph /  6.4km/h 4.0mph /  6.4km/h 89% 0.00in /  0mm
04:29 67.1 °F /  19.5 °C 63.8 °F /  17.7 °C 29.91in /  1012.8hPa East 4.0mph /  6.4km/h 4.0mph /  6.4km/h 89% 0.00in /  0mm
04:33 66.9 °F /  19.4 °C 63.6 °F /  17.6 °C 29.91in /  1012.8hPa East 4.0mph /  6.4km/h 5.0mph /  8km/h 89% 0.00in /  0mm
04:34 66.9 °F /  19.4 °C 63.6 °F /  17.6 °C 29.91in /  1012.8hPa ESE 4.0mph /  6.4km/h 5.0mph /  8km/h 89% 0.00in /  0mm
04:36 66.8 °F /  19.3 °C 63.8 °F /  17.7 °C 29.91in /  1012.8hPa ESE 3.0mph /  4.8km/h 4.0mph /  6.4km/h 90% 0.00in /  0mm
04:41 66.9 °F /  19.4 °C 63.9 °F /  17.7 °C 29.91in /  1012.8hPa East 3.0mph /  4.8km/h 5.0mph /  8km/h 90% 0.00in /  0mm
04:46 66.9 °F /  19.4 °C 63.9 °F /  17.7 °C 29.91in /  1012.8hPa ESE 3.0mph /  4.8km/h 5.0mph /  8km/h 90% 0.00in /  0mm
04:51 66.8 °F /  19.3 °C 63.8 °F /  17.7 °C 29.90in /  1012.4hPa ESE 3.0mph /  4.8km/h 4.0mph /  6.4km/h 90% 0.00in /  0mm
04:52 66.8 °F /  19.3 °C 63.8 °F /  17.7 °C 29.90in /  1012.4hPa ESE 4.0mph /  6.4km/h 4.0mph /  6.4km/h 90% 0.00in /  0mm
04:57 66.9 °F /  19.4 °C 63.9 °F /  17.7 °C 29.91in /  1012.8hPa East 3.0mph /  4.8km/h 4.0mph /  6.4km/h 90% 0.00in /  0mm
05:00 66.9 °F /  19.4 °C 63.9 °F /  17.7 °C 29.91in /  1012.8hPa ESE 2.0mph /  3.2km/h 3.0mph /  4.8km/h 90% 0.00in /  0mm
05:02 66.9 °F /  19.4 °C 63.9 °F /  17.7 °C 29.91in /  1012.8hPa Calm   2.0mph /  3.2km/h 90% 0.00in /  0mm
05:05 66.9 °F /  19.4 °C 63.9 °F /  17.7 °C 29.91in /  1012.8hPa ESE 1.0mph /  1.6km/h 1.0mph /  1.6km/h 90% 0.00in /  0mm
05:08 66.9 °F /  19.4 °C 63.9 °F /  17.7 °C 29.92in /  1013.1hPa ESE 1.0mph /  1.6km/h 1.0mph /  1.6km/h 90% 0.00in /  0mm
05:13 66.9 °F /  19.4 °C 63.9 °F /  17.7 °C 29.92in /  1013.1hPa SE 1.0mph /  1.6km/h 2.0mph /  3.2km/h 90% 0.00in /  0mm
05:14 66.9 °F /  19.4 °C 64.2 °F /  17.9 °C 29.92in /  1013.1hPa Calm   2.0mph /  3.2km/h 91% 0.00in /  0mm
05:19 66.8 °F /  19.3 °C 64.1 °F /  17.8 °C 29.92in /  1013.1hPa SE 1.0mph /  1.6km/h 1.0mph /  1.6km/h 91% 0.00in /  0mm
05:24 66.9 °F /  19.4 °C 64.2 °F /  17.9 °C 29.92in /  1013.1hPa ESE 1.0mph /  1.6km/h 2.0mph /  3.2km/h 91% 0.00in /  0mm
05:25 66.9 °F /  19.4 °C 64.2 °F /  17.9 °C 29.92in /  1013.1hPa ESE 1.0mph /  1.6km/h 2.0mph /  3.2km/h 91% 0.00in /  0mm
05:30 67.1 °F /  19.5 °C 64.1 °F /  17.8 °C 29.92in /  1013.1hPa Calm   1.0mph /  1.6km/h 90% 0.00in /  0mm
05:31 67.1 °F /  19.5 °C 64.1 °F /  17.8 °C 29.92in /  1013.1hPa Calm   1.0mph /  1.6km/h 90% 0.00in /  0mm
05:35 67.1 °F /  19.5 °C 64.1 °F /  17.8 °C 29.93in /  1013.4hPa Calm   1.0mph /  1.6km/h 90% 0.00in /  0mm
05:36 67.0 °F /  19.4 °C 64.0 °F /  17.8 °C 29.93in /  1013.4hPa Calm     90% 0.00in /  0mm
05:40 67.0 °F /  19.4 °C 64.0 °F /  17.8 °C 29.93in /  1013.4hPa SE 1.0mph /  1.6km/h 1.0mph /  1.6km/h 90% 0.00in /  0mm
05:45 67.1 °F /  19.5 °C 64.1 °F /  17.8 °C 29.93in /  1013.4hPa SE 1.0mph /  1.6km/h 2.0mph /  3.2km/h 90% 0.00in /  0mm
05:46 67.1 °F /  19.5 °C 64.1 °F /  17.8 °C 29.93in /  1013.4hPa SE 1.0mph /  1.6km/h 1.0mph /  1.6km/h 90% 0.00in /  0mm
05:51 67.3 °F /  19.6 °C 64.0 °F /  17.8 °C 29.93in /  1013.4hPa ESE 2.0mph /  3.2km/h 3.0mph /  4.8km/h 89% 0.00in /  0mm
05:52 67.4 °F /  19.7 °C 64.1 °F /  17.8 °C 29.93in /  1013.4hPa ESE 4.0mph /  6.4km/h 4.0mph /  6.4km/h 89% 0.00in /  0mm
05:53 67.5 °F /  19.7 °C 64.2 °F /  17.9 °C 29.93in /  1013.4hPa ESE 3.0mph /  4.8km/h 4.0mph /  6.4km/h 89% 0.00in /  0mm
05:56 67.7 °F /  19.8 °C 64.3 °F /  17.9 °C 29.93in /  1013.4hPa ESE 4.0mph /  6.4km/h 4.0mph /  6.4km/h 89% 0.00in /  0mm
05:58 67.8 °F /  19.9 °C 64.4 °F /  18 °C 29.93in /  1013.4hPa ESE 5.0mph /  8km/h 5.0mph /  8km/h 89% 0.00in /  0mm
06:03 68.5 °F /  20.3 °C 64.8 °F /  18.2 °C 29.92in /  1013.1hPa ESE 7.0mph /  11.3km/h 8.0mph /  12.9km/h 88% 0.00in /  0mm
06:08 68.9 °F /  20.5 °C 64.9 °F /  18.3 °C 29.92in /  1013.1hPa SE 5.0mph /  8km/h 9.0mph /  14.5km/h 87% 0.00in /  0mm
06:13 69.3 °F /  20.7 °C 65.3 °F /  18.5 °C 29.92in /  1013.1hPa SE 6.0mph /  9.7km/h 9.0mph /  14.5km/h 87% 0.00in /  0mm
06:18 69.3 °F /  20.7 °C 64.9 °F /  18.3 °C 29.92in /  1013.1hPa ESE 7.0mph /  11.3km/h 9.0mph /  14.5km/h 86% 0.00in /  0mm
06:23 69.4 °F /  20.8 °C 65.4 °F /  18.6 °C 29.92in /  1013.1hPa SE 7.0mph /  11.3km/h 10.0mph /  16.1km/h 87% 0.00in /  0mm
06:24 69.4 °F /  20.8 °C 65.4 °F /  18.6 °C 29.92in /  1013.1hPa SSE 5.0mph /  8km/h 9.0mph /  14.5km/h 87% 0.00in /  0mm
06:29 69.3 °F /  20.7 °C 65.3 °F /  18.5 °C 29.92in /  1013.1hPa SE 4.0mph /  6.4km/h 8.0mph /  12.9km/h 87% 0.00in /  0mm
06:30 69.3 °F /  20.7 °C 65.3 °F /  18.5 °C 29.93in /  1013.4hPa SSW 6.0mph /  9.7km/h 7.0mph /  11.3km/h 87% 0.00in /  0mm
06:31 69.2 °F /  20.7 °C 65.2 °F /  18.4 °C 29.93in /  1013.4hPa SE 8.0mph /  12.9km/h 8.0mph /  12.9km/h 87% 0.00in /  0mm
06:35 69.2 °F /  20.7 °C 65.2 °F /  18.4 °C 29.93in /  1013.4hPa SSE 4.0mph /  6.4km/h 9.0mph /  14.5km/h 87% 0.00in /  0mm
06:37 69.2 °F /  20.7 °C 65.2 °F /  18.4 °C 29.93in /  1013.4hPa SE 6.0mph /  9.7km/h 6.0mph /  9.7km/h 87% 0.00in /  0mm
06:40 69.1 °F /  20.6 °C 65.4 °F /  18.6 °C 29.93in /  1013.4hPa SSE 6.0mph /  9.7km/h 7.0mph /  11.3km/h 88% 0.00in /  0mm
06:45 68.9 °F /  20.5 °C 65.2 °F /  18.4 °C 29.93in /  1013.4hPa SSW 3.0mph /  4.8km/h 6.0mph /  9.7km/h 88% 0.00in /  0mm
06:50 68.7 °F /  20.4 °C 65.3 °F /  18.5 °C 29.94in /  1013.8hPa SSW 4.0mph /  6.4km/h 6.0mph /  9.7km/h 89% 0.00in /  0mm
06:51 68.8 °F /  20.4 °C 65.4 °F /  18.6 °C 29.94in /  1013.8hPa SE 3.0mph /  4.8km/h 6.0mph /  9.7km/h 89% 0.00in /  0mm
06:56 68.8 °F /  20.4 °C 65.4 °F /  18.6 °C 29.95in /  1014.1hPa SW 1.0mph /  1.6km/h 5.0mph /  8km/h 89% 0.00in /  0mm
06:58 68.8 °F /  20.4 °C 65.4 °F /  18.6 °C 29.95in /  1014.1hPa SSE 3.0mph /  4.8km/h 3.0mph /  4.8km/h 89% 0.00in /  0mm
07:01 68.8 °F /  20.4 °C 65.4 °F /  18.6 °C 29.95in /  1014.1hPa SSW 2.0mph /  3.2km/h 3.0mph /  4.8km/h 89% 0.00in /  0mm
07:03 68.8 °F /  20.4 °C 65.4 °F /  18.6 °C 29.95in /  1014.1hPa South 3.0mph /  4.8km/h 4.0mph /  6.4km/h 89% 0.00in /  0mm
07:08 68.8 °F /  20.4 °C 65.4 °F /  18.6 °C 29.96in /  1014.4hPa SE 1.0mph /  1.6km/h 4.0mph /  6.4km/h 89% 0.00in /  0mm
07:13 68.8 °F /  20.4 °C 65.4 °F /  18.6 °C 29.96in /  1014.4hPa SE 3.0mph /  4.8km/h 3.0mph /  4.8km/h 89% 0.00in /  0mm
07:18 68.8 °F /  20.4 °C 65.4 °F /  18.6 °C 29.95in /  1014.1hPa SE 3.0mph /  4.8km/h 4.0mph /  6.4km/h 89% 0.00in /  0mm
07:23 68.6 °F /  20.3 °C 65.6 °F /  18.7 °C 29.94in /  1013.8hPa SE 5.0mph /  8km/h 5.0mph /  8km/h 90% 0.00in /  0mm
07:28 68.8 °F /  20.4 °C 65.4 °F /  18.6 °C 29.93in /  1013.4hPa SE 5.0mph /  8km/h 7.0mph /  11.3km/h 89% 0.00in /  0mm
07:29 68.8 °F /  20.4 °C 65.4 °F /  18.6 °C 29.93in /  1013.4hPa SE 6.0mph /  9.7km/h 7.0mph /  11.3km/h 89% 0.00in /  0mm
07:34 69.0 °F /  20.6 °C 65.6 °F /  18.7 °C 29.93in /  1013.4hPa ESE 6.0mph /  9.7km/h 10.0mph /  16.1km/h 89% 0.00in /  0mm
07:39 69.4 °F /  20.8 °C 65.7 °F /  18.7 °C 29.92in /  1013.1hPa SE 6.0mph /  9.7km/h 11.0mph /  17.7km/h 88% 0.00in /  0mm
07:44 69.4 °F /  20.8 °C 65.7 °F /  18.7 °C 29.93in /  1013.4hPa ESE 5.0mph /  8km/h 7.0mph /  11.3km/h 88% 0.00in /  0mm
07:49 69.5 °F /  20.8 °C 65.8 °F /  18.8 °C 29.91in /  1012.8hPa SE 11.0mph /  17.7km/h 11.0mph /  17.7km/h 88% 0.00in /  0mm
07:54 69.6 °F /  20.9 °C 65.9 °F /  18.8 °C 29.91in /  1012.8hPa SE 9.0mph /  14.5km/h 14.0mph /  22.5km/h 88% 0.00in /  0mm
07:55 69.7 °F /  20.9 °C 66.0 °F /  18.9 °C 29.91in /  1012.8hPa ESE 9.0mph /  14.5km/h 14.0mph /  22.5km/h 88% 0.00in /  0mm
08:00 69.8 °F /  21 °C 66.1 °F /  18.9 °C 29.92in /  1013.1hPa SSE 4.0mph /  6.4km/h 5.0mph /  8km/h 88% 0.00in /  0mm
08:05 69.9 °F /  21.1 °C 66.2 °F /  19 °C 29.92in /  1013.1hPa SSE 4.0mph /  6.4km/h 6.0mph /  9.7km/h 88% 0.00in /  0mm
08:06 69.9 °F /  21.1 °C 66.2 °F /  19 °C 29.92in /  1013.1hPa South 4.0mph /  6.4km/h 6.0mph /  9.7km/h 88% 0.00in /  0mm
08:10 69.9 °F /  21.1 °C 66.5 °F /  19.2 °C 29.93in /  1013.4hPa SSE 6.0mph /  9.7km/h 7.0mph /  11.3km/h 89% 0.00in /  0mm
08:15 70.0 °F /  21.1 °C 66.6 °F /  19.2 °C 29.92in /  1013.1hPa SSE 4.0mph /  6.4km/h 5.0mph /  8km/h 89% 0.00in /  0mm
08:20 70.1 °F /  21.2 °C 66.7 °F /  19.3 °C 29.92in /  1013.1hPa SE 4.0mph /  6.4km/h 5.0mph /  8km/h 89% 0.00in /  0mm
08:25 70.3 °F /  21.3 °C 66.6 °F /  19.2 °C 29.92in /  1013.1hPa SE 7.0mph /  11.3km/h 7.0mph /  11.3km/h 88% 0.00in /  0mm
08:27 70.3 °F /  21.3 °C 66.6 °F /  19.2 °C 29.92in /  1013.1hPa ESE 7.0mph /  11.3km/h 7.0mph /  11.3km/h 88% 0.00in /  0mm
08:30 70.5 °F /  21.4 °C 66.8 °F /  19.3 °C 29.92in /  1013.1hPa SSE 3.0mph /  4.8km/h 6.0mph /  9.7km/h 88% 0.00in /  0mm
08:32 70.5 °F /  21.4 °C 66.8 °F /  19.3 °C 29.92in /  1013.1hPa SSE 5.0mph /  8km/h 6.0mph /  9.7km/h 88% 0.00in /  0mm
08:34 70.6 °F /  21.4 °C 66.9 °F /  19.4 °C 29.93in /  1013.4hPa SE 3.0mph /  4.8km/h 6.0mph /  9.7km/h 88% 0.00in /  0mm
08:36 70.7 °F /  21.5 °C 67.3 °F /  19.6 °C 29.93in /  1013.4hPa South 4.0mph /  6.4km/h 5.0mph /  8km/h 89% 0.00in /  0mm
08:41 70.7 °F /  21.5 °C 67.0 °F /  19.4 °C 29.93in /  1013.4hPa SE 5.0mph /  8km/h 7.0mph /  11.3km/h 88% 0.00in /  0mm
08:46 70.9 °F /  21.6 °C 67.2 °F /  19.6 °C 29.93in /  1013.4hPa SE 3.0mph /  4.8km/h 6.0mph /  9.7km/h 88% 0.00in /  0mm
08:51 71.1 °F /  21.7 °C 67.4 °F /  19.7 °C 29.94in /  1013.8hPa SSE 3.0mph /  4.8km/h 7.0mph /  11.3km/h 88% 0.00in /  0mm
08:52 71.2 °F /  21.8 °C 67.5 °F /  19.7 °C 29.94in /  1013.8hPa South 4.0mph /  6.4km/h 7.0mph /  11.3km/h 88% 0.00in /  0mm
08:57 71.4 °F /  21.9 °C 67.7 °F /  19.8 °C 29.95in /  1014.1hPa SSW 4.0mph /  6.4km/h 5.0mph /  8km/h 88% 0.00in /  0mm
09:02 71.8 °F /  22.1 °C 68.1 °F /  20.1 °C 29.96in /  1014.4hPa SSW 4.0mph /  6.4km/h 6.0mph /  9.7km/h 88% 0.00in /  0mm
09:07 72.3 °F /  22.4 °C 67.9 °F /  19.9 °C 29.96in /  1014.4hPa SSW 2.0mph /  3.2km/h 6.0mph /  9.7km/h 86% 0.00in /  0mm
09:08 72.3 °F /  22.4 °C 67.9 °F /  19.9 °C 29.96in /  1014.4hPa SW 2.0mph /  3.2km/h 6.0mph /  9.7km/h 86% 0.00in /  0mm
09:13 72.9 °F /  22.7 °C 68.1 °F /  20.1 °C 29.96in /  1014.4hPa South 7.0mph /  11.3km/h 7.0mph /  11.3km/h 85% 0.00in /  0mm
09:18 73.5 °F /  23.1 °C 68.4 °F /  20.2 °C 29.96in /  1014.4hPa SSE 5.0mph /  8km/h 7.0mph /  11.3km/h 84% 0.00in /  0mm
09:23 73.9 °F /  23.3 °C 68.8 °F /  20.4 °C 29.95in /  1014.1hPa SSE 2.0mph /  3.2km/h 6.0mph /  9.7km/h 84% 0.00in /  0mm
09:28 74.6 °F /  23.7 °C 68.8 °F /  20.4 °C 29.95in /  1014.1hPa SE 7.0mph /  11.3km/h 7.0mph /  11.3km/h 82% 0.00in /  0mm
09:29 74.6 °F /  23.7 °C 69.1 °F /  20.6 °C 29.95in /  1014.1hPa SSE 5.0mph /  8km/h 7.0mph /  11.3km/h 83% 0.00in /  0mm
09:33 74.6 °F /  23.7 °C 68.8 °F /  20.4 °C 29.95in /  1014.1hPa SSE 6.0mph /  9.7km/h 9.0mph /  14.5km/h 82% 0.00in /  0mm
09:36 74.5 °F /  23.6 °C 68.7 °F /  20.4 °C 29.96in /  1014.4hPa SSE 7.0mph /  11.3km/h 9.0mph /  14.5km/h 82% 0.00in /  0mm
09:38 74.3 °F /  23.5 °C 68.8 °F /  20.4 °C 29.96in /  1014.4hPa SSW 7.0mph /  11.3km/h 9.0mph /  14.5km/h 83% 0.00in /  0mm
09:41 74.2 °F /  23.4 °C 69.1 °F /  20.6 °C 29.96in /  1014.4hPa SSW 6.0mph /  9.7km/h 8.0mph /  12.9km/h 84% 0.00in /  0mm
09:46 74.0 °F /  23.3 °C 68.9 °F /  20.5 °C 29.96in /  1014.4hPa SW 4.0mph /  6.4km/h 8.0mph /  12.9km/h 84% 0.00in /  0mm
09:51 73.9 °F /  23.3 °C 68.8 °F /  20.4 °C 29.96in /  1014.4hPa West 5.0mph /  8km/h 10.0mph /  16.1km/h 84% 0.00in /  0mm
09:53 73.8 °F /  23.2 °C 68.7 °F /  20.4 °C 29.95in /  1014.1hPa SW 6.0mph /  9.7km/h 7.0mph /  11.3km/h 84% 0.00in /  0mm
09:56 73.8 °F /  23.2 °C 68.7 °F /  20.4 °C 29.95in /  1014.1hPa South 2.0mph /  3.2km/h 6.0mph /  9.7km/h 84% 0.00in /  0mm
09:58 73.9 °F /  23.3 °C 68.8 °F /  20.4 °C 29.95in /  1014.1hPa South 6.0mph /  9.7km/h 6.0mph /  9.7km/h 84% 0.00in /  0mm
10:01 73.8 °F /  23.2 °C 68.7 °F /  20.4 °C 29.95in /  1014.1hPa WSW 2.0mph /  3.2km/h 7.0mph /  11.3km/h 84% 0.00in /  0mm
10:03 73.8 °F /  23.2 °C 68.7 °F /  20.4 °C 29.95in /  1014.1hPa SW 6.0mph /  9.7km/h 9.0mph /  14.5km/h 84% 0.00in /  0mm
10:08 73.8 °F /  23.2 °C 68.7 °F /  20.4 °C 29.95in /  1014.1hPa WSW 3.0mph /  4.8km/h 6.0mph /  9.7km/h 84% 0.00in /  0mm
10:13 73.8 °F /  23.2 °C 68.7 °F /  20.4 °C 29.95in /  1014.1hPa WSW 5.0mph /  8km/h 6.0mph /  9.7km/h 84% 0.00in /  0mm
10:18 74.3 °F /  23.5 °C 69.2 °F /  20.7 °C 29.94in /  1013.8hPa West 2.0mph /  3.2km/h 4.0mph /  6.4km/h 84% 0.00in /  0mm
10:23 74.9 °F /  23.8 °C 69.7 °F /  20.9 °C 29.94in /  1013.8hPa SSW 4.0mph /  6.4km/h 5.0mph /  8km/h 84% 0.00in /  0mm
10:28 75.3 °F /  24.1 °C 69.1 °F /  20.6 °C 29.94in /  1013.8hPa West 3.0mph /  4.8km/h 6.0mph /  9.7km/h 81% 0.00in /  0mm
10:32 75.2 °F /  24 °C 69.3 °F /  20.7 °C 29.94in /  1013.8hPa West 3.0mph /  4.8km/h 5.0mph /  8km/h 82% 0.00in /  0mm
10:33 75.2 °F /  24 °C 69.3 °F /  20.7 °C 29.94in /  1013.8hPa SSW 2.0mph /  3.2km/h 5.0mph /  8km/h 82% 0.00in /  0mm
10:35 75.3 °F /  24.1 °C 69.1 °F /  20.6 °C 29.95in /  1014.1hPa WSW 5.0mph /  8km/h 6.0mph /  9.7km/h 81% 0.00in /  0mm
10:38 75.4 °F /  24.1 °C 69.5 °F /  20.8 °C 29.95in /  1014.1hPa WSW 6.0mph /  9.7km/h 9.0mph /  14.5km/h 82% 0.00in /  0mm
10:43 75.9 °F /  24.4 °C 70.0 °F /  21.1 °C 29.96in /  1014.4hPa SSW 5.0mph /  8km/h 8.0mph /  12.9km/h 82% 0.00in /  0mm
10:48 76.8 °F /  24.9 °C 70.5 °F /  21.4 °C 29.95in /  1014.1hPa WSW 6.0mph /  9.7km/h 8.0mph /  12.9km/h 81% 0.00in /  0mm
10:53 76.7 °F /  24.8 °C 69.7 °F /  20.9 °C 29.95in /  1014.1hPa SSW 3.0mph /  4.8km/h 8.0mph /  12.9km/h 79% 0.00in /  0mm
10:58 76.7 °F /  24.8 °C 70.4 °F /  21.3 °C 29.95in /  1014.1hPa SSW 5.0mph /  8km/h 5.0mph /  8km/h 81% 0.00in /  0mm
11:03 77.1 °F /  25.1 °C 70.5 °F /  21.4 °C 29.95in /  1014.1hPa South 2.0mph /  3.2km/h 5.0mph /  8km/h 80% 0.00in /  0mm
11:08 77.8 °F /  25.4 °C 70.8 °F /  21.6 °C 29.96in /  1014.4hPa SW 3.0mph /  4.8km/h 8.0mph /  12.9km/h 79% 0.00in /  0mm
11:13 78.3 °F /  25.7 °C 71.6 °F /  22 °C 29.96in /  1014.4hPa SW 5.0mph /  8km/h 6.0mph /  9.7km/h 80% 0.00in /  0mm
11:18 78.7 °F /  25.9 °C 70.9 °F /  21.6 °C 29.96in /  1014.4hPa SW 4.0mph /  6.4km/h 9.0mph /  14.5km/h 77% 0.00in /  0mm
11:23 78.9 °F /  26.1 °C 70.7 °F /  21.5 °C 29.96in /  1014.4hPa West 6.0mph /  9.7km/h 12.0mph /  19.3km/h 76% 0.00in /  0mm
11:29 79.5 °F /  26.4 °C 71.3 °F /  21.8 °C 29.96in /  1014.4hPa SW 6.0mph /  9.7km/h 6.0mph /  9.7km/h 76% 0.00in /  0mm
11:30 79.4 °F /  26.3 °C 70.8 °F /  21.6 °C 29.96in /  1014.4hPa SW 9.0mph /  14.5km/h 10.0mph /  16.1km/h 75% 0.00in /  0mm
11:34 79.5 °F /  26.4 °C 70.9 °F /  21.6 °C 29.96in /  1014.4hPa SW 5.0mph /  8km/h 9.0mph /  14.5km/h 75% 0.00in /  0mm
11:35 79.5 °F /  26.4 °C 70.9 °F /  21.6 °C 29.96in /  1014.4hPa SW 5.0mph /  8km/h 7.0mph /  11.3km/h 75% 0.00in /  0mm
11:36 79.5 °F /  26.4 °C 71.3 °F /  21.8 °C 29.97in /  1014.8hPa SW 7.0mph /  11.3km/h 9.0mph /  14.5km/h 76% 0.00in /  0mm
11:37 79.5 °F /  26.4 °C 71.3 °F /  21.8 °C 29.97in /  1014.8hPa SW 5.0mph /  8km/h 9.0mph /  14.5km/h 76% 0.00in /  0mm
11:41 79.4 °F /  26.3 °C 71.6 °F /  22 °C 29.97in /  1014.8hPa WSW 2.0mph /  3.2km/h 9.0mph /  14.5km/h 77% 0.00in /  0mm
11:42 79.4 °F /  26.3 °C 71.2 °F /  21.8 °C 29.97in /  1014.8hPa WSW 5.0mph /  8km/h 7.0mph /  11.3km/h 76% 0.00in /  0mm
11:47 79.1 °F /  26.2 °C 71.3 °F /  21.8 °C 29.99in /  1015.5hPa SW 4.0mph /  6.4km/h 9.0mph /  14.5km/h 77% 0.00in /  0mm
11:52 79.8 °F /  26.6 °C 71.6 °F /  22 °C 29.99in /  1015.5hPa SW 9.0mph /  14.5km/h 10.0mph /  16.1km/h 76% 0.00in /  0mm
11:53 79.8 °F /  26.6 °C 71.6 °F /  22 °C 30.00in /  1015.8hPa SW 10.0mph /  16.1km/h 10.0mph /  16.1km/h 76% 0.00in /  0mm
11:58 80.1 °F /  26.7 °C 72.2 °F /  22.3 °C 30.00in /  1015.8hPa West 10.0mph /  16.1km/h 16.0mph /  25.7km/h 77% 0.00in /  0mm
12:03 79.8 °F /  26.6 °C 71.6 °F /  22 °C 30.00in /  1015.8hPa West 6.0mph /  9.7km/h 9.0mph /  14.5km/h 76% 0.00in /  0mm
12:08 79.6 °F /  26.4 °C 71.4 °F /  21.9 °C 30.00in /  1015.8hPa WNW 9.0mph /  14.5km/h 13.0mph /  20.9km/h 76% 0.00in /  0mm
12:09 79.5 °F /  26.4 °C 71.3 °F /  21.8 °C 30.00in /  1015.8hPa SW 11.0mph /  17.7km/h 13.0mph /  20.9km/h 76% 0.00in /  0mm
12:14 79.3 °F /  26.3 °C 71.8 °F /  22.1 °C 30.01in /  1016.1hPa WSW 7.0mph /  11.3km/h 12.0mph /  19.3km/h 78% 0.00in /  0mm
12:19 79.1 °F /  26.2 °C 71.3 °F /  21.8 °C 30.01in /  1016.1hPa West 7.0mph /  11.3km/h 14.0mph /  22.5km/h 77% 0.00in /  0mm
12:24 78.4 °F /  25.8 °C 71.0 °F /  21.7 °C 30.01in /  1016.1hPa SW 8.0mph /  12.9km/h 14.0mph /  22.5km/h 78% 0.00in /  0mm
12:29 77.6 °F /  25.3 °C 70.2 °F /  21.2 °C 30.01in /  1016.1hPa WNW 9.0mph /  14.5km/h 15.0mph /  24.1km/h 78% 0.00in /  0mm
12:34 76.9 °F /  24.9 °C 69.9 °F /  21.1 °C 30.01in /  1016.1hPa WSW 9.0mph /  14.5km/h 12.0mph /  19.3km/h 79% 0.00in /  0mm
12:35 76.9 °F /  24.9 °C 70.3 °F /  21.3 °C 30.02in /  1016.5hPa West 8.0mph /  12.9km/h 12.0mph /  19.3km/h 80% 0.00in /  0mm
12:36 76.8 °F /  24.9 °C 70.2 °F /  21.2 °C 30.01in /  1016.1hPa WSW 8.0mph /  12.9km/h 11.0mph /  17.7km/h 80% 0.00in /  0mm
12:39 76.6 °F /  24.8 °C 70.0 °F /  21.1 °C 30.01in /  1016.1hPa WSW 8.0mph /  12.9km/h 13.0mph /  20.9km/h 80% 0.00in /  0mm
12:44 76.4 °F /  24.7 °C 70.1 °F /  21.2 °C 30.01in /  1016.1hPa West 3.0mph /  4.8km/h 8.0mph /  12.9km/h 81% 0.00in /  0mm
12:49 76.6 °F /  24.8 °C 70.7 °F /  21.5 °C 30.01in /  1016.1hPa WSW 8.0mph /  12.9km/h 10.0mph /  16.1km/h 82% 0.00in /  0mm
12:50 76.6 °F /  24.8 °C 70.7 °F /  21.5 °C 30.01in /  1016.1hPa West 6.0mph /  9.7km/h 10.0mph /  16.1km/h 82% 0.00in /  0mm
12:55 76.8 °F /  24.9 °C 70.5 °F /  21.4 °C 30.01in /  1016.1hPa WNW 3.0mph /  4.8km/h 11.0mph /  17.7km/h 81% 0.00in /  0mm
12:56 76.8 °F /  24.9 °C 70.5 °F /  21.4 °C 30.01in /  1016.1hPa WNW 5.0mph /  8km/h 11.0mph /  17.7km/h 81% 0.00in /  0mm
13:00 76.9 °F /  24.9 °C 70.3 °F /  21.3 °C 30.01in /  1016.1hPa SW 12.0mph /  19.3km/h 12.0mph /  19.3km/h 80% 0.00in /  0mm
13:01 76.9 °F /  24.9 °C 69.9 °F /  21.1 °C 30.01in /  1016.1hPa West 4.0mph /  6.4km/h 13.0mph /  20.9km/h 79% 0.00in /  0mm
13:06 76.8 °F /  24.9 °C 69.8 °F /  21 °C 30.01in /  1016.1hPa WNW 6.0mph /  9.7km/h 13.0mph /  20.9km/h 79% 0.00in /  0mm
13:11 76.6 °F /  24.8 °C 69.2 °F /  20.7 °C 30.01in /  1016.1hPa NW 7.0mph /  11.3km/h 14.0mph /  22.5km/h 78% 0.00in /  0mm
13:16 76.5 °F /  24.7 °C 69.1 °F /  20.6 °C 30.02in /  1016.5hPa West 5.0mph /  8km/h 16.0mph /  25.7km/h 78% 0.00in /  0mm
13:21 76.5 °F /  24.7 °C 69.1 °F /  20.6 °C 30.02in /  1016.5hPa WNW 14.0mph /  22.5km/h 14.0mph /  22.5km/h 78% 0.00in /  0mm
13:22 76.4 °F /  24.7 °C 68.7 °F /  20.4 °C 30.02in /  1016.5hPa West 14.0mph /  22.5km/h 17.0mph /  27.4km/h 77% 0.00in /  0mm
13:26 76.4 °F /  24.7 °C 69.0 °F /  20.6 °C 30.01in /  1016.1hPa WNW 8.0mph /  12.9km/h 14.0mph /  22.5km/h 78% 0.00in /  0mm
13:27 76.5 °F /  24.7 °C 69.1 °F /  20.6 °C 30.01in /  1016.1hPa WNW 5.0mph /  8km/h 13.0mph /  20.9km/h 78% 0.00in /  0mm
13:32 77.0 °F /  25 °C 69.2 °F /  20.7 °C 30.01in /  1016.1hPa WNW 9.0mph /  14.5km/h 13.0mph /  20.9km/h 77% 0.00in /  0mm
13:33 77.1 °F /  25.1 °C 68.2 °F /  20.1 °C 30.01in /  1016.1hPa West 9.0mph /  14.5km/h 14.0mph /  22.5km/h 74% 0.00in /  0mm
13:34 77.1 °F /  25.1 °C 68.2 °F /  20.1 °C 30.01in /  1016.1hPa WSW 8.0mph /  12.9km/h 14.0mph /  22.5km/h 74% 0.00in /  0mm
13:37 77.4 °F /  25.2 °C 68.1 °F /  20.1 °C 30.01in /  1016.1hPa West 4.0mph /  6.4km/h 14.0mph /  22.5km/h 73% 0.00in /  0mm
13:39 77.9 °F /  25.5 °C 68.9 °F /  20.5 °C 30.01in /  1016.1hPa West 6.0mph /  9.7km/h 13.0mph /  20.9km/h 74% 0.00in /  0mm
13:44 77.8 °F /  25.4 °C 66.4 °F /  19.1 °C 30.01in /  1016.1hPa WNW 7.0mph /  11.3km/h 13.0mph /  20.9km/h 68% 0.00in /  0mm
13:45 77.8 °F /  25.4 °C 66.4 °F /  19.1 °C 30.00in /  1015.8hPa NW 8.0mph /  12.9km/h 13.0mph /  20.9km/h 68% 0.00in /  0mm
13:50 77.7 °F /  25.4 °C 66.7 °F /  19.3 °C 30.00in /  1015.8hPa West 5.0mph /  8km/h 13.0mph /  20.9km/h 69% 0.00in /  0mm
13:52 77.8 °F /  25.4 °C 66.4 °F /  19.1 °C 30.01in /  1016.1hPa WNW 6.0mph /  9.7km/h 11.0mph /  17.7km/h 68% 0.00in /  0mm
13:55 77.9 °F /  25.5 °C 66.5 °F /  19.2 °C 30.00in /  1015.8hPa WSW 9.0mph /  14.5km/h 12.0mph /  19.3km/h 68% 0.00in /  0mm
13:56 77.8 °F /  25.4 °C 66.0 °F /  18.9 °C 30.00in /  1015.8hPa West 5.0mph /  8km/h 12.0mph /  19.3km/h 67% 0.00in /  0mm
13:57 77.8 °F /  25.4 °C 66.4 °F /  19.1 °C 30.00in /  1015.8hPa WNW 8.0mph /  12.9km/h 12.0mph /  19.3km/h 68% 0.00in /  0mm
14:01 77.7 °F /  25.4 °C 66.7 °F /  19.3 °C 30.00in /  1015.8hPa West 8.0mph /  12.9km/h 12.0mph /  19.3km/h 69% 0.00in /  0mm
14:03 77.6 °F /  25.3 °C 67.1 °F /  19.5 °C 30.00in /  1015.8hPa West 6.0mph /  9.7km/h 9.0mph /  14.5km/h 70% 0.00in /  0mm
14:08 78.3 °F /  25.7 °C 68.1 °F /  20.1 °C 29.99in /  1015.5hPa WNW 12.0mph /  19.3km/h 12.0mph /  19.3km/h 71% 0.00in /  0mm
14:09 78.4 °F /  25.8 °C 67.0 °F /  19.4 °C 29.99in /  1015.5hPa WNW 9.0mph /  14.5km/h 12.0mph /  19.3km/h 68% 0.00in /  0mm
14:14 78.5 °F /  25.8 °C 66.2 °F /  19 °C 29.99in /  1015.5hPa West 13.0mph /  20.9km/h 13.0mph /  20.9km/h 66% 0.00in /  0mm
14:15 78.5 °F /  25.8 °C 65.8 °F /  18.8 °C 29.99in /  1015.5hPa WSW 7.0mph /  11.3km/h 13.0mph /  20.9km/h 65% 0.00in /  0mm
14:20 78.7 °F /  25.9 °C 66.4 °F /  19.1 °C 29.99in /  1015.5hPa West 11.0mph /  17.7km/h 11.0mph /  17.7km/h 66% 0.00in /  0mm
14:25 78.8 °F /  26 °C 64.7 °F /  18.2 °C 29.98in /  1015.1hPa WNW 9.0mph /  14.5km/h 15.0mph /  24.1km/h 62% 0.00in /  0mm
14:26 78.8 °F /  26 °C 65.6 °F /  18.7 °C 29.98in /  1015.1hPa WNW 13.0mph /  20.9km/h 15.0mph /  24.1km/h 64% 0.00in /  0mm
14:31 78.8 °F /  26 °C 65.2 °F /  18.4 °C 29.98in /  1015.1hPa WNW 10.0mph /  16.1km/h 17.0mph /  27.4km/h 63% 0.00in /  0mm
14:36 79.2 °F /  26.2 °C 64.6 °F /  18.1 °C 29.99in /  1015.5hPa WSW 5.0mph /  8km/h 13.0mph /  20.9km/h 61% 0.00in /  0mm
14:41 79.8 °F /  26.6 °C 66.6 °F /  19.2 °C 29.99in /  1015.5hPa West 7.0mph /  11.3km/h 12.0mph /  19.3km/h 64% 0.00in /  0mm
14:46 79.0 °F /  26.1 °C 65.3 °F /  18.5 °C 29.98in /  1015.1hPa WNW 8.0mph /  12.9km/h 17.0mph /  27.4km/h 63% 0.00in /  0mm
14:47 79.0 °F /  26.1 °C 65.8 °F /  18.8 °C 29.98in /  1015.1hPa West 12.0mph /  19.3km/h 17.0mph /  27.4km/h 64% 0.00in /  0mm
14:52 78.8 °F /  26 °C 65.2 °F /  18.4 °C 29.97in /  1014.8hPa West 5.0mph /  8km/h 11.0mph /  17.7km/h 63% 0.00in /  0mm
14:53 78.8 °F /  26 °C 65.2 °F /  18.4 °C 29.97in /  1014.8hPa WNW 12.0mph /  19.3km/h 12.0mph /  19.3km/h 63% 0.00in /  0mm
14:55 78.8 °F /  26 °C 65.6 °F /  18.7 °C 29.97in /  1014.8hPa West 8.0mph /  12.9km/h 13.0mph /  20.9km/h 64% 0.00in /  0mm
14:57 78.9 °F /  26.1 °C 64.8 °F /  18.2 °C 29.97in /  1014.8hPa West 8.0mph /  12.9km/h 12.0mph /  19.3km/h 62% 0.00in /  0mm
14:58 78.9 °F /  26.1 °C 64.8 °F /  18.2 °C 29.97in /  1014.8hPa West 5.0mph /  8km/h 12.0mph /  19.3km/h 62% 0.00in /  0mm
15:00 79.0 °F /  26.1 °C 64.9 °F /  18.3 °C 29.97in /  1014.8hPa WNW 7.0mph /  11.3km/h 12.0mph /  19.3km/h 62% 0.00in /  0mm
15:03 79.0 °F /  26.1 °C 65.3 °F /  18.5 °C 29.96in /  1014.4hPa WNW 5.0mph /  8km/h 12.0mph /  19.3km/h 63% 0.00in /  0mm
15:08 79.1 °F /  26.2 °C 64.5 °F /  18.1 °C 29.96in /  1014.4hPa West 7.0mph /  11.3km/h 10.0mph /  16.1km/h 61% 0.00in /  0mm
15:13 78.7 °F /  25.9 °C 64.6 °F /  18.1 °C 29.95in /  1014.1hPa NW 2.0mph /  3.2km/h 5.0mph /  8km/h 62% 0.00in /  0mm
15:18 78.4 °F /  25.8 °C 63.4 °F /  17.4 °C 29.95in /  1014.1hPa WNW 3.0mph /  4.8km/h 7.0mph /  11.3km/h 60% 0.00in /  0mm
15:23 78.5 °F /  25.8 °C 65.3 °F /  18.5 °C 29.95in /  1014.1hPa West 1.0mph /  1.6km/h 2.0mph /  3.2km/h 64% 0.00in /  0mm
15:28 78.8 °F /  26 °C 65.2 °F /  18.4 °C 29.94in /  1013.8hPa Calm   1.0mph /  1.6km/h 63% 0.00in /  0mm
15:33 79.1 °F /  26.2 °C 65.0 °F /  18.3 °C 29.94in /  1013.8hPa SSW 2.0mph /  3.2km/h 3.0mph /  4.8km/h 62% 0.00in /  0mm
15:35 79.2 °F /  26.2 °C 64.1 °F /  17.8 °C 29.94in /  1013.8hPa SW 1.0mph /  1.6km/h 2.0mph /  3.2km/h 60% 0.00in /  0mm
15:40 79.6 °F /  26.4 °C 63.0 °F /  17.2 °C 29.93in /  1013.4hPa SE 2.0mph /  3.2km/h 2.0mph /  3.2km/h 57% 0.00in /  0mm
15:42 79.7 °F /  26.5 °C 62.6 °F /  17 °C 29.93in /  1013.4hPa SE 1.0mph /  1.6km/h 2.0mph /  3.2km/h 56% 0.00in /  0mm
15:45 79.6 °F /  26.4 °C 64.0 °F /  17.8 °C 29.93in /  1013.4hPa SE 4.0mph /  6.4km/h 4.0mph /  6.4km/h 59% 0.00in /  0mm
15:50 79.1 °F /  26.2 °C 64.0 °F /  17.8 °C 29.93in /  1013.4hPa SE 7.0mph /  11.3km/h 8.0mph /  12.9km/h 60% 0.00in /  0mm
15:51 79.1 °F /  26.2 °C 63.6 °F /  17.6 °C 29.93in /  1013.4hPa SE 6.0mph /  9.7km/h 8.0mph /  12.9km/h 59% 0.00in /  0mm
15:56 78.6 °F /  25.9 °C 64.0 °F /  17.8 °C 29.93in /  1013.4hPa SE 8.0mph /  12.9km/h 9.0mph /  14.5km/h 61% 0.00in /  0mm
16:01 78.2 °F /  25.7 °C 63.7 °F /  17.6 °C 29.94in /  1013.8hPa SSE 2.0mph /  3.2km/h 8.0mph /  12.9km/h 61% 0.00in /  0mm
16:06 78.5 °F /  25.8 °C 64.4 °F /  18 °C 29.95in /  1014.1hPa WSW 4.0mph /  6.4km/h 4.0mph /  6.4km/h 62% 0.00in /  0mm
16:11 79.0 °F /  26.1 °C 65.3 °F /  18.5 °C 29.95in /  1014.1hPa SSW 2.0mph /  3.2km/h 3.0mph /  4.8km/h 63% 0.00in /  0mm
16:13 79.2 °F /  26.2 °C 65.5 °F /  18.6 °C 29.95in /  1014.1hPa SW 2.0mph /  3.2km/h 4.0mph /  6.4km/h 63% 0.00in /  0mm
16:18 79.9 °F /  26.6 °C 64.8 °F /  18.2 °C 29.96in /  1014.4hPa WSW 2.0mph /  3.2km/h 6.0mph /  9.7km/h 60% 0.00in /  0mm
16:23 80.5 °F /  26.9 °C 65.3 °F /  18.5 °C 29.95in /  1014.1hPa South 3.0mph /  4.8km/h 6.0mph /  9.7km/h 60% 0.00in /  0mm
16:28 81.0 °F /  27.2 °C 65.8 °F /  18.8 °C 29.95in /  1014.1hPa South 2.0mph /  3.2km/h 6.0mph /  9.7km/h 60% 0.00in /  0mm
16:31 81.3 °F /  27.4 °C 68.0 °F /  20 °C 29.96in /  1014.4hPa SW 6.0mph /  9.7km/h 6.0mph /  9.7km/h 64% 0.00in /  0mm
16:33 81.4 °F /  27.4 °C 66.2 °F /  19 °C 29.96in /  1014.4hPa SW 3.0mph /  4.8km/h 7.0mph /  11.3km/h 60% 0.00in /  0mm
16:36 81.5 °F /  27.5 °C 66.8 °F /  19.3 °C 29.96in /  1014.4hPa SSW 1.0mph /  1.6km/h 5.0mph /  8km/h 61% 0.00in /  0mm
16:38 81.5 °F /  27.5 °C 65.8 °F /  18.8 °C 29.97in /  1014.8hPa SW 7.0mph /  11.3km/h 7.0mph /  11.3km/h 59% 0.00in /  0mm
16:43 81.2 °F /  27.3 °C 66.5 °F /  19.2 °C 29.96in /  1014.4hPa SW 5.0mph /  8km/h 7.0mph /  11.3km/h 61% 0.00in /  0mm
16:44 81.3 °F /  27.4 °C 67.5 °F /  19.7 °C 29.96in /  1014.4hPa SW 5.0mph /  8km/h 7.0mph /  11.3km/h 63% 0.00in /  0mm
16:49 81.5 °F /  27.5 °C 67.2 °F /  19.6 °C 29.97in /  1014.8hPa WSW 8.0mph /  12.9km/h 8.0mph /  12.9km/h 62% 0.00in /  0mm
16:54 81.6 °F /  27.6 °C 66.9 °F /  19.4 °C 29.97in /  1014.8hPa SW 7.0mph /  11.3km/h 7.0mph /  11.3km/h 61% 0.00in /  0mm
16:58 81.8 °F /  27.7 °C 68.0 °F /  20 °C 29.97in /  1014.8hPa WSW 3.0mph /  4.8km/h 7.0mph /  11.3km/h 63% 0.00in /  0mm
17:03 82.0 °F /  27.8 °C 67.2 °F /  19.6 °C 29.97in /  1014.8hPa West 3.0mph /  4.8km/h 9.0mph /  14.5km/h 61% 0.00in /  0mm
17:04 82.0 °F /  27.8 °C 67.2 °F /  19.6 °C 29.97in /  1014.8hPa West 6.0mph /  9.7km/h 9.0mph /  14.5km/h 61% 0.00in /  0mm
17:09 82.1 °F /  27.8 °C 67.8 °F /  19.9 °C 29.97in /  1014.8hPa West 5.0mph /  8km/h 9.0mph /  14.5km/h 62% 0.00in /  0mm
17:14 82.1 °F /  27.8 °C 67.3 °F /  19.6 °C 29.97in /  1014.8hPa WSW 6.0mph /  9.7km/h 9.0mph /  14.5km/h 61% 0.00in /  0mm
17:19 82.3 °F /  27.9 °C 67.0 °F /  19.4 °C 29.97in /  1014.8hPa SW 5.0mph /  8km/h 9.0mph /  14.5km/h 60% 0.00in /  0mm
17:21 82.3 °F /  27.9 °C 67.0 °F /  19.4 °C 29.97in /  1014.8hPa SW 8.0mph /  12.9km/h 9.0mph /  14.5km/h 60% 0.00in /  0mm
17:24 82.2 °F /  27.9 °C 66.5 °F /  19.2 °C 29.96in /  1014.4hPa West 8.0mph /  12.9km/h 10.0mph /  16.1km/h 59% 0.00in /  0mm
17:29 82.1 °F /  27.8 °C 67.3 °F /  19.6 °C 29.96in /  1014.4hPa SW 4.0mph /  6.4km/h 7.0mph /  11.3km/h 61% 0.00in /  0mm
17:30 82.1 °F /  27.8 °C 67.3 °F /  19.6 °C 29.95in /  1014.1hPa SSW 10.0mph /  16.1km/h 10.0mph /  16.1km/h 61% 0.00in /  0mm
17:32 81.9 °F /  27.7 °C 66.7 °F /  19.3 °C 29.95in /  1014.1hPa WSW 6.0mph /  9.7km/h 10.0mph /  16.1km/h 60% 0.00in /  0mm
17:34 81.8 °F /  27.7 °C 66.1 °F /  18.9 °C 29.95in /  1014.1hPa SW 6.0mph /  9.7km/h 10.0mph /  16.1km/h 59% 0.00in /  0mm
17:35 81.7 °F /  27.6 °C 66.0 °F /  18.9 °C 29.95in /  1014.1hPa SW 5.0mph /  8km/h 10.0mph /  16.1km/h 59% 0.00in /  0mm
17:39 81.3 °F /  27.4 °C 66.1 °F /  18.9 °C 29.95in /  1014.1hPa SSW 5.0mph /  8km/h 7.0mph /  11.3km/h 60% 0.00in /  0mm
17:44 80.9 °F /  27.2 °C 66.2 °F /  19 °C 29.94in /  1013.8hPa WSW 6.0mph /  9.7km/h 7.0mph /  11.3km/h 61% 0.00in /  0mm
17:45 80.8 °F /  27.1 °C 66.1 °F /  18.9 °C 29.94in /  1013.8hPa SW 5.0mph /  8km/h 7.0mph /  11.3km/h 61% 0.00in /  0mm
17:50 80.6 °F /  27 °C 66.8 °F /  19.3 °C 29.94in /  1013.8hPa WSW 6.0mph /  9.7km/h 8.0mph /  12.9km/h 63% 0.00in /  0mm
17:52 80.5 °F /  26.9 °C 66.3 °F /  19.1 °C 29.94in /  1013.8hPa WSW 6.0mph /  9.7km/h 7.0mph /  11.3km/h 62% 0.00in /  0mm
17:55 80.3 °F /  26.8 °C 66.6 °F /  19.2 °C 29.94in /  1013.8hPa WSW 2.0mph /  3.2km/h 6.0mph /  9.7km/h 63% 0.00in /  0mm
17:57 80.3 °F /  26.8 °C 66.6 °F /  19.2 °C 29.94in /  1013.8hPa SSW 4.0mph /  6.4km/h 4.0mph /  6.4km/h 63% 0.00in /  0mm
17:58 80.2 °F /  26.8 °C 66.5 °F /  19.2 °C 29.93in /  1013.4hPa West 3.0mph /  4.8km/h 6.0mph /  9.7km/h 63% 0.00in /  0mm
18:03 79.9 °F /  26.6 °C 66.2 °F /  19 °C 29.92in /  1013.1hPa WSW 3.0mph /  4.8km/h 5.0mph /  8km/h 63% 0.00in /  0mm
18:08 79.8 °F /  26.6 °C 66.6 °F /  19.2 °C 29.92in /  1013.1hPa West 2.0mph /  3.2km/h 5.0mph /  8km/h 64% 0.00in /  0mm
18:13 79.7 °F /  26.5 °C 66.5 °F /  19.2 °C 29.91in /  1012.8hPa WSW 2.0mph /  3.2km/h 3.0mph /  4.8km/h 64% 0.00in /  0mm
18:14 79.7 °F /  26.5 °C 66.9 °F /  19.4 °C 29.91in /  1012.8hPa SW 2.0mph /  3.2km/h 3.0mph /  4.8km/h 65% 0.00in /  0mm
18:19 79.7 °F /  26.5 °C 66.5 °F /  19.2 °C 29.90in /  1012.4hPa SW 1.0mph /  1.6km/h 3.0mph /  4.8km/h 64% 0.00in /  0mm
18:24 79.6 °F /  26.4 °C 66.8 °F /  19.3 °C 29.88in /  1011.7hPa SE 5.0mph /  8km/h 5.0mph /  8km/h 65% 0.00in /  0mm
18:29 79.3 °F /  26.3 °C 66.5 °F /  19.2 °C 29.87in /  1011.4hPa SE 7.0mph /  11.3km/h 7.0mph /  11.3km/h 65% 0.00in /  0mm
18:30 79.2 °F /  26.2 °C 66.4 °F /  19.1 °C 29.86in /  1011.1hPa ESE 9.0mph /  14.5km/h 9.0mph /  14.5km/h 65% 0.00in /  0mm
18:31 79.1 °F /  26.2 °C 65.4 °F /  18.6 °C 29.86in /  1011.1hPa ESE 8.0mph /  12.9km/h 9.0mph /  14.5km/h 63% 0.00in /  0mm
18:35 79.0 °F /  26.1 °C 66.2 °F /  19 °C 29.86in /  1011.1hPa SE 6.0mph /  9.7km/h 9.0mph /  14.5km/h 65% 0.00in /  0mm
18:36 79.0 °F /  26.1 °C 66.2 °F /  19 °C 29.86in /  1011.1hPa SE 6.0mph /  9.7km/h 9.0mph /  14.5km/h 65% 0.00in /  0mm
18:41 79.0 °F /  26.1 °C 66.7 °F /  19.3 °C 29.86in /  1011.1hPa ESE 5.0mph /  8km/h 7.0mph /  11.3km/h 66% 0.00in /  0mm
18:46 79.4 °F /  26.3 °C 66.6 °F /  19.2 °C 29.87in /  1011.4hPa ESE 8.0mph /  12.9km/h 9.0mph /  14.5km/h 65% 0.00in /  0mm
18:51 79.8 °F /  26.6 °C 67.0 °F /  19.4 °C 29.87in /  1011.4hPa SE 4.0mph /  6.4km/h 7.0mph /  11.3km/h 65% 0.00in /  0mm
18:53 80.0 °F /  26.7 °C 67.2 °F /  19.6 °C 29.87in /  1011.4hPa SSE 7.0mph /  11.3km/h 7.0mph /  11.3km/h 65% 0.00in /  0mm
18:56 80.2 °F /  26.8 °C 66.9 °F /  19.4 °C 29.87in /  1011.4hPa SE 4.0mph /  6.4km/h 7.0mph /  11.3km/h 64% 0.00in /  0mm
18:57 80.1 °F /  26.7 °C 67.7 °F /  19.8 °C 29.87in /  1011.4hPa SE 3.0mph /  4.8km/h 6.0mph /  9.7km/h 66% 0.00in /  0mm
18:58 80.1 °F /  26.7 °C 67.7 °F /  19.8 °C 29.87in /  1011.4hPa SSE 4.0mph /  6.4km/h 5.0mph /  8km/h 66% 0.00in /  0mm
19:03 79.5 °F /  26.4 °C 67.6 °F /  19.8 °C 29.88in /  1011.7hPa SSE 5.0mph /  8km/h 7.0mph /  11.3km/h 67% 0.00in /  0mm
19:08 79.1 °F /  26.2 °C 67.2 °F /  19.6 °C 29.88in /  1011.7hPa SSE 5.0mph /  8km/h 8.0mph /  12.9km/h 67% 0.00in /  0mm
19:09 79.1 °F /  26.2 °C 67.2 °F /  19.6 °C 29.88in /  1011.7hPa SSE 5.0mph /  8km/h 8.0mph /  12.9km/h 67% 0.00in /  0mm
19:14 78.7 °F /  25.9 °C 67.3 °F /  19.6 °C 29.88in /  1011.7hPa SE 5.0mph /  8km/h 8.0mph /  12.9km/h 68% 0.00in /  0mm
19:19 78.8 °F /  26 °C 66.5 °F /  19.2 °C 29.88in /  1011.7hPa SSE 5.0mph /  8km/h 8.0mph /  12.9km/h 66% 0.00in /  0mm
19:24 78.6 °F /  25.9 °C 67.2 °F /  19.6 °C 29.88in /  1011.7hPa SSE 4.0mph /  6.4km/h 6.0mph /  9.7km/h 68% 0.00in /  0mm
19:29 78.2 °F /  25.7 °C 67.2 °F /  19.6 °C 29.88in /  1011.7hPa SSW 2.0mph /  3.2km/h 5.0mph /  8km/h 69% 0.00in /  0mm
19:32 78.1 °F /  25.6 °C 67.1 °F /  19.5 °C 29.88in /  1011.7hPa South 3.0mph /  4.8km/h 7.0mph /  11.3km/h 69% 0.00in /  0mm
19:34 78.0 °F /  25.6 °C 67.4 °F /  19.7 °C 29.88in /  1011.7hPa South 2.0mph /  3.2km/h 6.0mph /  9.7km/h 70% 0.00in /  0mm
19:35 78.0 °F /  25.6 °C 67.8 °F /  19.9 °C 29.88in /  1011.7hPa South 4.0mph /  6.4km/h 6.0mph /  9.7km/h 71% 0.00in /  0mm
19:36 77.9 °F /  25.5 °C 67.3 °F /  19.6 °C 29.88in /  1011.7hPa SSW 4.0mph /  6.4km/h 6.0mph /  9.7km/h 70% 0.00in /  0mm
19:39 77.7 °F /  25.4 °C 67.1 °F /  19.5 °C 29.88in /  1011.7hPa SSW 5.0mph /  8km/h 7.0mph /  11.3km/h 70% 0.00in /  0mm
19:44 77.6 °F /  25.3 °C 67.5 °F /  19.7 °C 29.88in /  1011.7hPa South 4.0mph /  6.4km/h 5.0mph /  8km/h 71% 0.00in /  0mm
19:49 77.5 °F /  25.3 °C 67.4 °F /  19.7 °C 29.88in /  1011.7hPa SSE 5.0mph /  8km/h 7.0mph /  11.3km/h 71% 0.00in /  0mm
19:55 77.3 °F /  25.2 °C 67.6 °F /  19.8 °C 29.87in /  1011.4hPa SSE 4.0mph /  6.4km/h 7.0mph /  11.3km/h 72% 0.00in /  0mm
20:00 77.1 °F /  25.1 °C 67.8 °F /  19.9 °C 29.87in /  1011.4hPa SE 3.0mph /  4.8km/h 5.0mph /  8km/h 73% 0.00in /  0mm
20:05 77.0 °F /  25 °C 68.1 °F /  20.1 °C 29.87in /  1011.4hPa SE 3.0mph /  4.8km/h 6.0mph /  9.7km/h 74% 0.00in /  0mm
20:10 77.0 °F /  25 °C 68.1 °F /  20.1 °C 29.87in /  1011.4hPa SSE 3.0mph /  4.8km/h 7.0mph /  11.3km/h 74% 0.00in /  0mm
20:15 76.7 °F /  24.8 °C 68.2 °F /  20.1 °C 29.86in /  1011.1hPa ESE 6.0mph /  9.7km/h 7.0mph /  11.3km/h 75% 0.00in /  0mm
20:20 76.5 °F /  24.7 °C 68.0 °F /  20 °C 29.86in /  1011.1hPa SE 6.0mph /  9.7km/h 8.0mph /  12.9km/h 75% 0.00in /  0mm
20:25 76.1 °F /  24.5 °C 68.0 °F /  20 °C 29.86in /  1011.1hPa SE 6.0mph /  9.7km/h 8.0mph /  12.9km/h 76% 0.00in /  0mm
20:29 75.9 °F /  24.4 °C 68.2 °F /  20.1 °C 29.86in /  1011.1hPa SE 6.0mph /  9.7km/h 6.0mph /  9.7km/h 77% 0.00in /  0mm
20:34 75.5 °F /  24.2 °C 68.2 °F /  20.1 °C 29.86in /  1011.1hPa SE 3.0mph /  4.8km/h 6.0mph /  9.7km/h 78% 0.00in /  0mm
20:36 75.4 °F /  24.1 °C 68.1 °F /  20.1 °C 29.86in /  1011.1hPa SSE 3.0mph /  4.8km/h 6.0mph /  9.7km/h 78% 0.00in /  0mm
20:41 75.2 °F /  24 °C 68.2 °F /  20.1 °C 29.86in /  1011.1hPa ESE 4.0mph /  6.4km/h 8.0mph /  12.9km/h 79% 0.00in /  0mm
20:42 75.2 °F /  24 °C 68.2 °F /  20.1 °C 29.85in /  1010.7hPa SSE 4.0mph /  6.4km/h 8.0mph /  12.9km/h 79% 0.00in /  0mm
20:47 74.9 °F /  23.8 °C 67.9 °F /  19.9 °C 29.85in /  1010.7hPa SE 5.0mph /  8km/h 7.0mph /  11.3km/h 79% 0.00in /  0mm
20:52 74.8 °F /  23.8 °C 67.9 °F /  19.9 °C 29.85in /  1010.7hPa SSE 4.0mph /  6.4km/h 7.0mph /  11.3km/h 79% 0.00in /  0mm
20:54 74.7 °F /  23.7 °C 68.1 °F /  20.1 °C 29.85in /  1010.7hPa SE 5.0mph /  8km/h 7.0mph /  11.3km/h 80% 0.00in /  0mm
20:58 74.5 °F /  23.6 °C 67.9 °F /  19.9 °C 29.85in /  1010.7hPa SSE 3.0mph /  4.8km/h 6.0mph /  9.7km/h 80% 0.00in /  0mm
20:59 74.4 °F /  23.6 °C 67.8 °F /  19.9 °C 29.85in /  1010.7hPa SSE 4.0mph /  6.4km/h 5.0mph /  8km/h 80% 0.00in /  0mm
21:03 74.0 °F /  23.3 °C 67.4 °F /  19.7 °C 29.85in /  1010.7hPa SSE 5.0mph /  8km/h 5.0mph /  8km/h 80% 0.00in /  0mm
21:04 73.9 °F /  23.3 °C 67.7 °F /  19.8 °C 29.85in /  1010.7hPa SE 5.0mph /  8km/h 7.0mph /  11.3km/h 81% 0.00in /  0mm
21:09 74.0 °F /  23.3 °C 67.4 °F /  19.7 °C 29.85in /  1010.7hPa SE 5.0mph /  8km/h 10.0mph /  16.1km/h 80% 0.00in /  0mm
21:14 74.3 °F /  23.5 °C 67.4 °F /  19.7 °C 29.84in /  1010.4hPa SE 6.0mph /  9.7km/h 10.0mph /  16.1km/h 79% 0.00in /  0mm
21:19 74.5 °F /  23.6 °C 67.2 °F /  19.6 °C 29.84in /  1010.4hPa South 5.0mph /  8km/h 11.0mph /  17.7km/h 78% 0.00in /  0mm
21:24 74.5 °F /  23.6 °C 67.2 °F /  19.6 °C 29.84in /  1010.4hPa SSE 5.0mph /  8km/h 7.0mph /  11.3km/h 78% 0.00in /  0mm
21:29 74.6 °F /  23.7 °C 67.3 °F /  19.6 °C 29.84in /  1010.4hPa South 3.0mph /  4.8km/h 9.0mph /  14.5km/h 78% 0.00in /  0mm
21:34 74.6 °F /  23.7 °C 67.7 °F /  19.8 °C 29.84in /  1010.4hPa SSE 4.0mph /  6.4km/h 7.0mph /  11.3km/h 79% 0.00in /  0mm
21:39 74.2 °F /  23.4 °C 67.3 °F /  19.6 °C 29.84in /  1010.4hPa SE 5.0mph /  8km/h 6.0mph /  9.7km/h 79% 0.00in /  0mm
21:40 74.2 °F /  23.4 °C 67.3 °F /  19.6 °C 29.84in /  1010.4hPa SSE 5.0mph /  8km/h 6.0mph /  9.7km/h 79% 0.00in /  0mm
21:45 74.1 °F /  23.4 °C 67.5 °F /  19.7 °C 29.84in /  1010.4hPa SE 4.0mph /  6.4km/h 5.0mph /  8km/h 80% 0.00in /  0mm
21:50 74.2 °F /  23.4 °C 67.6 °F /  19.8 °C 29.84in /  1010.4hPa SE 5.0mph /  8km/h 8.0mph /  12.9km/h 80% 0.00in /  0mm
21:53 74.1 °F /  23.4 °C 67.5 °F /  19.7 °C 29.84in /  1010.4hPa SSE 5.0mph /  8km/h 7.0mph /  11.3km/h 80% 0.00in /  0mm
21:55 74.1 °F /  23.4 °C 67.5 °F /  19.7 °C 29.84in /  1010.4hPa SSE 4.0mph /  6.4km/h 6.0mph /  9.7km/h 80% 0.00in /  0mm
21:56 74.0 °F /  23.3 °C 67.8 °F /  19.9 °C 29.84in /  1010.4hPa SSE 7.0mph /  11.3km/h 7.0mph /  11.3km/h 81% 0.00in /  0mm
21:59 73.9 °F /  23.3 °C 67.7 °F /  19.8 °C 29.84in /  1010.4hPa SSE 4.0mph /  6.4km/h 7.0mph /  11.3km/h 81% 0.00in /  0mm
22:01 73.9 °F /  23.3 °C 67.7 °F /  19.8 °C 29.84in /  1010.4hPa SSE 4.0mph /  6.4km/h 6.0mph /  9.7km/h 81% 0.00in /  0mm
22:06 74.0 °F /  23.3 °C 67.8 °F /  19.9 °C 29.84in /  1010.4hPa SE 4.0mph /  6.4km/h 7.0mph /  11.3km/h 81% 0.00in /  0mm
22:11 74.0 °F /  23.3 °C 67.8 °F /  19.9 °C 29.84in /  1010.4hPa SSE 5.0mph /  8km/h 9.0mph /  14.5km/h 81% 0.00in /  0mm
22:16 74.0 °F /  23.3 °C 67.8 °F /  19.9 °C 29.84in /  1010.4hPa SSE 6.0mph /  9.7km/h 8.0mph /  12.9km/h 81% 0.00in /  0mm
22:21 74.0 °F /  23.3 °C 67.8 °F /  19.9 °C 29.84in /  1010.4hPa SE 2.0mph /  3.2km/h 7.0mph /  11.3km/h 81% 0.00in /  0mm
22:26 73.9 °F /  23.3 °C 68.1 °F /  20.1 °C 29.85in /  1010.7hPa SSE 4.0mph /  6.4km/h 7.0mph /  11.3km/h 82% 0.00in /  0mm
22:27 73.9 °F /  23.3 °C 68.1 °F /  20.1 °C 29.85in /  1010.7hPa SE 3.0mph /  4.8km/h 7.0mph /  11.3km/h 82% 0.00in /  0mm
22:32 73.7 °F /  23.2 °C 68.2 °F /  20.1 °C 29.85in /  1010.7hPa South 4.0mph /  6.4km/h 6.0mph /  9.7km/h 83% 0.00in /  0mm
22:33 73.7 °F /  23.2 °C 68.2 °F /  20.1 °C 29.85in /  1010.7hPa South 6.0mph /  9.7km/h 6.0mph /  9.7km/h 83% 0.00in /  0mm
22:36 73.7 °F /  23.2 °C 68.2 °F /  20.1 °C 29.85in /  1010.7hPa SSE 5.0mph /  8km/h 7.0mph /  11.3km/h 83% 0.00in /  0mm
22:41 73.9 °F /  23.3 °C 68.4 °F /  20.2 °C 29.85in /  1010.7hPa SSE 4.0mph /  6.4km/h 9.0mph /  14.5km/h 83% 0.00in /  0mm
22:46 74.0 °F /  23.3 °C 68.5 °F /  20.3 °C 29.85in /  1010.7hPa SSE 4.0mph /  6.4km/h 6.0mph /  9.7km/h 83% 0.00in /  0mm
22:51 73.9 °F /  23.3 °C 68.8 °F /  20.4 °C 29.85in /  1010.7hPa SSE 5.0mph /  8km/h 7.0mph /  11.3km/h 84% 0.00in /  0mm
22:52 73.9 °F /  23.3 °C 68.8 °F /  20.4 °C 29.85in /  1010.7hPa SE 4.0mph /  6.4km/h 7.0mph /  11.3km/h 84% 0.00in /  0mm
22:57 73.7 °F /  23.2 °C 68.6 °F /  20.3 °C 29.84in /  1010.4hPa South 6.0mph /  9.7km/h 7.0mph /  11.3km/h 84% 0.00in /  0mm
22:58 73.7 °F /  23.2 °C 68.6 °F /  20.3 °C 29.84in /  1010.4hPa South 5.0mph /  8km/h 7.0mph /  11.3km/h 84% 0.00in /  0mm
23:03 73.8 °F /  23.2 °C 68.7 °F /  20.4 °C 29.84in /  1010.4hPa SSE 4.0mph /  6.4km/h 10.0mph /  16.1km/h 84% 0.00in /  0mm
23:08 73.7 °F /  23.2 °C 68.6 °F /  20.3 °C 29.84in /  1010.4hPa SSW 5.0mph /  8km/h 9.0mph /  14.5km/h 84% 0.00in /  0mm
23:13 74.0 °F /  23.3 °C 68.5 °F /  20.3 °C 29.85in /  1010.7hPa SW 3.0mph /  4.8km/h 8.0mph /  12.9km/h 83% 0.00in /  0mm
23:18 74.1 °F /  23.4 °C 68.6 °F /  20.3 °C 29.85in /  1010.7hPa SSW 3.0mph /  4.8km/h 6.0mph /  9.7km/h 83% 0.00in /  0mm
23:23 74.1 °F /  23.4 °C 68.6 °F /  20.3 °C 29.85in /  1010.7hPa SSE 6.0mph /  9.7km/h 6.0mph /  9.7km/h 83% 0.00in /  0mm
23:28 74.0 °F /  23.3 °C 68.5 °F /  20.3 °C 29.85in /  1010.7hPa SSW 4.0mph /  6.4km/h 8.0mph /  12.9km/h 83% 0.00in /  0mm
23:29 74.0 °F /  23.3 °C 68.5 °F /  20.3 °C 29.85in /  1010.7hPa SSE 4.0mph /  6.4km/h 8.0mph /  12.9km/h 83% 0.00in /  0mm
23:33 74.0 °F /  23.3 °C 68.5 °F /  20.3 °C 29.86in /  1011.1hPa SSE 3.0mph /  4.8km/h 7.0mph /  11.3km/h 83% 0.00in /  0mm
23:34 74.0 °F /  23.3 °C 68.5 °F /  20.3 °C 29.86in /  1011.1hPa SSE 2.0mph /  3.2km/h 6.0mph /  9.7km/h 83% 0.00in /  0mm
23:35 74.0 °F /  23.3 °C 68.5 °F /  20.3 °C 29.85in /  1010.7hPa SSE 3.0mph /  4.8km/h 6.0mph /  9.7km/h 83% 0.00in /  0mm
23:39 73.9 °F /  23.3 °C 68.4 °F /  20.2 °C 29.86in /  1011.1hPa SSE 4.0mph /  6.4km/h 5.0mph /  8km/h 83% 0.00in /  0mm
23:44 73.7 °F /  23.2 °C 68.2 °F /  20.1 °C 29.86in /  1011.1hPa SW 4.0mph /  6.4km/h 6.0mph /  9.7km/h 83% 0.00in /  0mm
23:49 73.7 °F /  23.2 °C 68.2 °F /  20.1 °C 29.86in /  1011.1hPa SSE 6.0mph /  9.7km/h 8.0mph /  12.9km/h 83% 0.00in /  0mm
23:54 73.8 °F /  23.2 °C 68.3 °F /  20.2 °C 29.85in /  1010.7hPa SSE 6.0mph /  9.7km/h 12.0mph /  19.3km/h 83% 0.00in /  0mm
23:55 73.8 °F /  23.2 °C 68.3 °F /  20.2 °C 29.85in /  1010.7hPa SSE 5.0mph /  8km/h 12.0mph /  19.3km/h 83% 0.00in /  0mm
Compliments of Weather Underground